^^
Meteo Knjazevac Station Historical Data
Daily Summary for August 28, 2021 Units:  Both    English   Metric
Daily Weekly Monthly Yearly Custom
  High: Low: Average:
Temperature: 61.3 °F /  16.3 °C 27.3 °F /  -2.6 °C 42.1 °F /  5.6 °C
Dew Point: 48.7 °F /  9.3 °C 25.6 °F /  -3.6 °C 37.3 °F /  2.9 °C
Humidity: 98% 62% 84%
Wind Speed: 6mph /  9.7km/h - 1.6mph /  2.6km/h
Wind Gust: 13mph /  20.9km/h - -
Wind- - WSW
Pressure: 30.40 in /  1029.3 hPa 30.30 in /  1026 hPa -
Precipitation: 0.00 in /  0 mm    
Historical Graphs
 
 
Tabular Data for August 28, 2021
Time Temperature Dew Point Pressure Wind Wind Speed Wind Gust Humidity Rainfall Rate (Hourly) solar Conditions
00:00 34.3 °F /  1.3 °C 31.7 °F /  -0.2 °C 30.38in /  1028.7hPa Calm   2mph /  3.2km/h 90% 0.00in /  0mm 0 W/m2
00:10 34 °F /  1.1 °C 31.1 °F /  -0.5 °C 30.39in /  1029hPa Calm   1mph /  1.6km/h 89% 0.00in /  0mm 0 W/m2
00:20 33.4 °F /  0.8 °C 30.5 °F /  -0.8 °C 30.39in /  1029hPa West 2mph /  3.2km/h 4mph /  6.4km/h 89% 0.00in /  0mm 0 W/m2
00:30 33.3 °F /  0.7 °C 30.9 °F /  -0.6 °C 30.39in /  1029hPa WNW 2mph /  3.2km/h 4mph /  6.4km/h 91% 0.00in /  0mm 0 W/m2
00:40 33.4 °F /  0.8 °C 31.6 °F /  -0.2 °C 30.38in /  1028.7hPa WNW 1mph /  1.6km/h 4mph /  6.4km/h 93% 0.00in /  0mm 0 W/m2
00:50 33.1 °F /  0.6 °C 30.7 °F /  -0.7 °C 30.38in /  1028.7hPa WNW 1mph /  1.6km/h 2mph /  3.2km/h 91% 0.00in /  0mm 0 W/m2
01:00 32.7 °F /  0.4 °C 30.4 °F /  -0.9 °C 30.38in /  1028.7hPa Calm   2mph /  3.2km/h 91% 0.00in /  0mm 0 W/m2
01:10 32.4 °F /  0.2 °C 29.8 °F /  -1.2 °C 30.38in /  1028.7hPa Calm   2mph /  3.2km/h 90% 0.00in /  0mm 0 W/m2
01:20 32.4 °F /  0.2 °C 30.6 °F /  -0.8 °C 30.38in /  1028.7hPa NNW 1mph /  1.6km/h 3mph /  4.8km/h 93% 0.00in /  0mm 0 W/m2
01:30 32.4 °F /  0.2 °C 30.6 °F /  -0.8 °C 30.38in /  1028.7hPa Calm   2mph /  3.2km/h 93% 0.00in /  0mm 0 W/m2
01:40 32 °F /  0 °C 29.7 °F /  -1.3 °C 30.38in /  1028.7hPa Calm   2mph /  3.2km/h 91% 0.00in /  0mm 0 W/m2
01:50 31.8 °F /  -0.1 °C 29.5 °F /  -1.4 °C 30.38in /  1028.7hPa WNW 1mph /  1.6km/h 2mph /  3.2km/h 91% 0.00in /  0mm 0 W/m2
02:00 31.5 °F /  -0.3 °C 29.1 °F /  -1.6 °C 30.38in /  1028.7hPa NW 1mph /  1.6km/h 2mph /  3.2km/h 91% 0.00in /  0mm 0 W/m2
02:10 31.3 °F /  -0.4 °C 29 °F /  -1.7 °C 30.38in /  1028.7hPa West 2mph /  3.2km/h 2mph /  3.2km/h 91% 0.00in /  0mm 0 W/m2
02:20 31.1 °F /  -0.5 °C 29.6 °F /  -1.3 °C 30.38in /  1028.7hPa West 3mph /  4.8km/h 6mph /  9.7km/h 94% 0.00in /  0mm 0 W/m2
02:30 31.1 °F /  -0.5 °C 29.6 °F /  -1.3 °C 30.38in /  1028.7hPa WNW 3mph /  4.8km/h 5mph /  8km/h 94% 0.00in /  0mm 0 W/m2
02:40 30.9 °F /  -0.6 °C 29.4 °F /  -1.4 °C 30.38in /  1028.7hPa West 1mph /  1.6km/h 4mph /  6.4km/h 94% 0.00in /  0mm 0 W/m2
02:50 30.7 °F /  -0.7 °C 29 °F /  -1.7 °C 30.38in /  1028.7hPa West 1mph /  1.6km/h 3mph /  4.8km/h 93% 0.00in /  0mm 0 W/m2
03:00 30.7 °F /  -0.7 °C 29 °F /  -1.7 °C 30.38in /  1028.7hPa West 1mph /  1.6km/h 3mph /  4.8km/h 93% 0.00in /  0mm 0 W/m2
03:10 30.4 °F /  -0.9 °C 28.6 °F /  -1.9 °C 30.38in /  1028.7hPa West 2mph /  3.2km/h 3mph /  4.8km/h 93% 0.00in /  0mm 0 W/m2
03:20 30.2 °F /  -1 °C 28.4 °F /  -2 °C 30.38in /  1028.7hPa WNW 1mph /  1.6km/h 3mph /  4.8km/h 93% 0.00in /  0mm 0 W/m2
03:30 30 °F /  -1.1 °C 28.2 °F /  -2.1 °C 30.38in /  1028.7hPa NW 1mph /  1.6km/h 2mph /  3.2km/h 93% 0.00in /  0mm 0 W/m2
03:40 29.8 °F /  -1.2 °C 28.1 °F /  -2.2 °C 30.37in /  1028.3hPa NW 1mph /  1.6km/h 2mph /  3.2km/h 93% 0.00in /  0mm 0 W/m2
03:50 29.7 °F /  -1.3 °C 27.9 °F /  -2.3 °C 30.37in /  1028.3hPa WNW 2mph /  3.2km/h 2mph /  3.2km/h 93% 0.00in /  0mm 0 W/m2
04:00 29.7 °F /  -1.3 °C 27.9 °F /  -2.3 °C 30.37in /  1028.3hPa WNW 1mph /  1.6km/h 3mph /  4.8km/h 93% 0.00in /  0mm 0 W/m2
04:10 29.5 °F /  -1.4 °C 27.7 °F /  -2.4 °C 30.37in /  1028.3hPa WNW 2mph /  3.2km/h 3mph /  4.8km/h 93% 0.00in /  0mm 0 W/m2
04:20 29.3 °F /  -1.5 °C 27.8 °F /  -2.3 °C 30.37in /  1028.3hPa NW 1mph /  1.6km/h 3mph /  4.8km/h 94% 0.00in /  0mm 0 W/m2
04:30 29.1 °F /  -1.6 °C 27.3 °F /  -2.6 °C 30.37in /  1028.3hPa NW 1mph /  1.6km/h 2mph /  3.2km/h 93% 0.00in /  0mm 0 W/m2
04:40 29.1 °F /  -1.6 °C 27.6 °F /  -2.4 °C 30.37in /  1028.3hPa WNW 1mph /  1.6km/h 3mph /  4.8km/h 94% 0.00in /  0mm 0 W/m2
04:50 28.9 °F /  -1.7 °C 27.4 °F /  -2.6 °C 30.37in /  1028.3hPa Calm   3mph /  4.8km/h 94% 0.00in /  0mm 0 W/m2
05:00 28.8 °F /  -1.8 °C 27 °F /  -2.8 °C 30.37in /  1028.3hPa NW 1mph /  1.6km/h 2mph /  3.2km/h 93% 0.00in /  0mm 0 W/m2
05:10 28.6 °F /  -1.9 °C 26.8 °F /  -2.9 °C 30.37in /  1028.3hPa NW 2mph /  3.2km/h 3mph /  4.8km/h 93% 0.00in /  0mm 0 W/m2
05:20 28.6 °F /  -1.9 °C 26.8 °F /  -2.9 °C 30.38in /  1028.7hPa NW 1mph /  1.6km/h 2mph /  3.2km/h 93% 0.00in /  0mm 0 W/m2
05:30 28.4 °F /  -2 °C 26.6 °F /  -3 °C 30.38in /  1028.7hPa Calm   2mph /  3.2km/h 93% 0.00in /  0mm 0 W/m2
05:40 28.2 °F /  -2.1 °C 26.5 °F /  -3.1 °C 30.38in /  1028.7hPa NW 1mph /  1.6km/h 2mph /  3.2km/h 93% 0.00in /  0mm 0 W/m2
05:50 28 °F /  -2.2 °C 26.5 °F /  -3.1 °C 30.38in /  1028.7hPa WNW 1mph /  1.6km/h 3mph /  4.8km/h 94% 0.00in /  0mm 0 W/m2
06:00 28 °F /  -2.2 °C 26.5 °F /  -3.1 °C 30.38in /  1028.7hPa WNW 1mph /  1.6km/h 2mph /  3.2km/h 94% 0.00in /  0mm 0 W/m2
06:10 27.9 °F /  -2.3 °C 26.4 °F /  -3.1 °C 30.39in /  1029hPa WNW 2mph /  3.2km/h 2mph /  3.2km/h 94% 0.00in /  0mm 0 W/m2
06:20 27.9 °F /  -2.3 °C 26.4 °F /  -3.1 °C 30.39in /  1029hPa WNW 2mph /  3.2km/h 3mph /  4.8km/h 94% 0.00in /  0mm 0 W/m2
06:30 27.9 °F /  -2.3 °C 26.4 °F /  -3.1 °C 30.39in /  1029hPa WNW 2mph /  3.2km/h 3mph /  4.8km/h 94% 0.00in /  0mm 0 W/m2
06:40 27.9 °F /  -2.3 °C 26.6 °F /  -3 °C 30.39in /  1029hPa NW 1mph /  1.6km/h 3mph /  4.8km/h 95% 0.00in /  0mm 0 W/m2
06:50 27.9 °F /  -2.3 °C 26.6 °F /  -3 °C 30.39in /  1029hPa NW 1mph /  1.6km/h 2mph /  3.2km/h 95% 0.00in /  0mm 0 W/m2
07:00 27.7 °F /  -2.4 °C 26.4 °F /  -3.1 °C 30.39in /  1029hPa NW 1mph /  1.6km/h 4mph /  6.4km/h 95% 0.00in /  0mm 0 W/m2
07:10 27.7 °F /  -2.4 °C 26.2 °F /  -3.2 °C 30.39in /  1029hPa NNW 1mph /  1.6km/h 3mph /  4.8km/h 94% 0.00in /  0mm 4 W/m2
07:20 27.5 °F /  -2.5 °C 26 °F /  -3.3 °C 30.39in /  1029hPa NW 1mph /  1.6km/h 2mph /  3.2km/h 94% 0.00in /  0mm 17 W/m2
07:30 27.3 °F /  -2.6 °C 25.6 °F /  -3.6 °C 30.39in /  1029hPa WNW 2mph /  3.2km/h 3mph /  4.8km/h 93% 0.00in /  0mm 31 W/m2
07:40 27.3 °F /  -2.6 °C 25.8 °F /  -3.4 °C 30.39in /  1029hPa WNW 2mph /  3.2km/h 3mph /  4.8km/h 94% 0.00in /  0mm 44 W/m2
07:50 27.5 °F /  -2.5 °C 26.3 °F /  -3.2 °C 30.40in /  1029.3hPa NW 1mph /  1.6km/h 3mph /  4.8km/h 95% 0.00in /  0mm 62 W/m2
08:00 27.5 °F /  -2.5 °C 26 °F /  -3.3 °C 30.40in /  1029.3hPa Calm   2mph /  3.2km/h 94% 0.00in /  0mm 82 W/m2
08:10 27.9 °F /  -2.3 °C 26.6 °F /  -3 °C 30.40in /  1029.3hPa WNW 2mph /  3.2km/h 2mph /  3.2km/h 95% 0.00in /  0mm 106 W/m2
08:20 28 °F /  -2.2 °C 26.8 °F /  -2.9 °C 30.40in /  1029.3hPa WNW 1mph /  1.6km/h 2mph /  3.2km/h 95% 0.00in /  0mm 107 W/m2
08:30 28.6 °F /  -1.9 °C 27.6 °F /  -2.4 °C 30.40in /  1029.3hPa NW 1mph /  1.6km/h 2mph /  3.2km/h 96% 0.00in /  0mm 156 W/m2
08:40 29.9 °F /  -1.2 °C 28.9 °F /  -1.7 °C 30.40in /  1029.3hPa Calm   2mph /  3.2km/h 96% 0.00in /  0mm 184 W/m2
08:50 31.5 °F /  -0.3 °C 31 °F /  -0.6 °C 30.40in /  1029.3hPa NW 1mph /  1.6km/h 2mph /  3.2km/h 98% 0.00in /  0mm 204 W/m2
09:00 32.7 °F /  0.4 °C 32.2 °F /  0.1 °C 30.40in /  1029.3hPa West 1mph /  1.6km/h 2mph /  3.2km/h 98% 0.00in /  0mm 232 W/m2
09:10 34 °F /  1.1 °C 33 °F /  0.6 °C 30.40in /  1029.3hPa WSW 1mph /  1.6km/h 2mph /  3.2km/h 96% 0.00in /  0mm 257 W/m2
09:20 35.3 °F /  1.8 °C 34 °F /  1.1 °C 30.40in /  1029.3hPa SW 1mph /  1.6km/h 2mph /  3.2km/h 95% 0.00in /  0mm 253 W/m2
09:30 36.3 °F /  2.4 °C 34.8 °F /  1.6 °C 30.40in /  1029.3hPa West 1mph /  1.6km/h 3mph /  4.8km/h 94% 0.00in /  0mm 310 W/m2
09:40 37.2 °F /  2.9 °C 35.4 °F /  1.9 °C 30.40in /  1029.3hPa West 1mph /  1.6km/h 2mph /  3.2km/h 93% 0.00in /  0mm 334 W/m2
09:50 38.5 °F /  3.6 °C 36.7 °F /  2.6 °C 30.39in /  1029hPa SW 1mph /  1.6km/h 2mph /  3.2km/h 93% 0.00in /  0mm 356 W/m2
10:00 39.9 °F /  4.4 °C 37.5 °F /  3.1 °C 30.39in /  1029hPa SW 1mph /  1.6km/h 3mph /  4.8km/h 91% 0.00in /  0mm 381 W/m2
10:10 41.2 °F /  5.1 °C 38.2 °F /  3.4 °C 30.39in /  1029hPa NNE 1mph /  1.6km/h 4mph /  6.4km/h 89% 0.00in /  0mm 394 W/m2
10:20 42.3 °F /  5.7 °C 38.4 °F /  3.6 °C 30.39in /  1029hPa North 2mph /  3.2km/h 5mph /  8km/h 86% 0.00in /  0mm 219 W/m2
10:30 43.5 °F /  6.4 °C 39.6 °F /  4.2 °C 30.39in /  1029hPa NE 3mph /  4.8km/h 6mph /  9.7km/h 86% 0.00in /  0mm 129 W/m2
10:40 44.6 °F /  7 °C 40.1 °F /  4.5 °C 30.39in /  1029hPa NNE 1mph /  1.6km/h 6mph /  9.7km/h 84% 0.00in /  0mm 289 W/m2
10:50 45.5 °F /  7.5 °C 40.6 °F /  4.8 °C 30.39in /  1029hPa NE 1mph /  1.6km/h 5mph /  8km/h 83% 0.00in /  0mm 457 W/m2
11:00 46.4 °F /  8 °C 41.5 °F /  5.3 °C 30.39in /  1029hPa NNE 1mph /  1.6km/h 5mph /  8km/h 83% 0.00in /  0mm 472 W/m2
11:10 47.3 °F /  8.5 °C 41.4 °F /  5.2 °C 30.38in /  1028.7hPa ESE 1mph /  1.6km/h 5mph /  8km/h 80% 0.00in /  0mm 483 W/m2
11:20 48 °F /  8.9 °C 42.2 °F /  5.7 °C 30.38in /  1028.7hPa NNE 1mph /  1.6km/h 5mph /  8km/h 80% 0.00in /  0mm 491 W/m2
11:30 49.5 °F /  9.7 °C 43.2 °F /  6.2 °C 30.38in /  1028.7hPa North 3mph /  4.8km/h 5mph /  8km/h 79% 0.00in /  0mm 499 W/m2
11:40 50.2 °F /  10.1 °C 43.6 °F /  6.4 °C 30.37in /  1028.3hPa NE 1mph /  1.6km/h 6mph /  9.7km/h 78% 0.00in /  0mm 505 W/m2
11:50 51.3 °F /  10.7 °C 44.7 °F /  7.1 °C 30.37in /  1028.3hPa NNE 5mph /  8km/h 8mph /  12.9km/h 78% 0.00in /  0mm 509 W/m2
12:00 52.2 °F /  11.2 °C 45.2 °F /  7.3 °C 30.37in /  1028.3hPa NE 1mph /  1.6km/h 7mph /  11.3km/h 77% 0.00in /  0mm 512 W/m2
12:10 53.3 °F /  11.8 °C 45.5 °F /  7.5 °C 30.36in /  1028hPa NE 2mph /  3.2km/h 7mph /  11.3km/h 75% 0.00in /  0mm 513 W/m2
12:20 54.1 °F /  12.3 °C 46 °F /  7.8 °C 30.36in /  1028hPa NNE 5mph /  8km/h 12mph /  19.3km/h 74% 0.00in /  0mm 513 W/m2
12:30 55 °F /  12.8 °C 46.5 °F /  8.1 °C 30.35in /  1027.7hPa North 2mph /  3.2km/h 8mph /  12.9km/h 73% 0.00in /  0mm 511 W/m2
12:40 56 °F /  13.3 °C 47.1 °F /  8.4 °C 30.35in /  1027.7hPa NNE 2mph /  3.2km/h 8mph /  12.9km/h 72% 0.00in /  0mm 507 W/m2
12:50 57 °F /  13.9 °C 47.3 °F /  8.5 °C 30.35in /  1027.7hPa NNE 2mph /  3.2km/h 8mph /  12.9km/h 70% 0.00in /  0mm 502 W/m2
13:00 57.7 °F /  14.3 °C 47.6 °F /  8.7 °C 30.34in /  1027.3hPa NNE 3mph /  4.8km/h 8mph /  12.9km/h 69% 0.00in /  0mm 496 W/m2
13:10 58.5 °F /  14.7 °C 48 °F /  8.9 °C 30.34in /  1027.3hPa North 1mph /  1.6km/h 8mph /  12.9km/h 68% 0.00in /  0mm 488 W/m2
13:20 59.2 °F /  15.1 °C 48.6 °F /  9.2 °C 30.33in /  1027hPa NNE 3mph /  4.8km/h 7mph /  11.3km/h 68% 0.00in /  0mm 478 W/m2
13:30 59.7 °F /  15.4 °C 48.7 °F /  9.3 °C 30.33in /  1027hPa North 3mph /  4.8km/h 7mph /  11.3km/h 67% 0.00in /  0mm 467 W/m2
13:40 60.1 °F /  15.6 °C 48.3 °F /  9.1 °C 30.32in /  1026.6hPa NNE 3mph /  4.8km/h 10mph /  16.1km/h 65% 0.00in /  0mm 455 W/m2
13:50 60.6 °F /  15.9 °C 48.4 °F /  9.1 °C 30.32in /  1026.6hPa North 3mph /  4.8km/h 10mph /  16.1km/h 64% 0.00in /  0mm 441 W/m2
14:00 61 °F /  16.1 °C 48.3 °F /  9.1 °C 30.31in /  1026.3hPa North 6mph /  9.7km/h 10mph /  16.1km/h 63% 0.00in /  0mm 425 W/m2
14:10 61.2 °F /  16.2 °C 48.5 °F /  9.2 °C 30.31in /  1026.3hPa NNE 3mph /  4.8km/h 8mph /  12.9km/h 63% 0.00in /  0mm 409 W/m2
14:20 61.2 °F /  16.2 °C 48.5 °F /  9.2 °C 30.31in /  1026.3hPa North 2mph /  3.2km/h 10mph /  16.1km/h 63% 0.00in /  0mm 391 W/m2
14:30 61.2 °F /  16.2 °C 48.5 °F /  9.2 °C 30.31in /  1026.3hPa NNW 1mph /  1.6km/h 6mph /  9.7km/h 63% 0.00in /  0mm 373 W/m2
14:40 61.3 °F /  16.3 °C 48.2 °F /  9 °C 30.30in /  1026hPa North 6mph /  9.7km/h 9mph /  14.5km/h 62% 0.00in /  0mm 353 W/m2
14:50 61.3 °F /  16.3 °C 48.2 °F /  9 °C 30.30in /  1026hPa North 5mph /  8km/h 10mph /  16.1km/h 62% 0.00in /  0mm 332 W/m2
15:00 61.2 °F /  16.2 °C 48.5 °F /  9.2 °C 30.30in /  1026hPa North 3mph /  4.8km/h 10mph /  16.1km/h 63% 0.00in /  0mm 310 W/m2
15:10 61.2 °F /  16.2 °C 48.5 °F /  9.2 °C 30.30in /  1026hPa North 3mph /  4.8km/h 11mph /  17.7km/h 63% 0.00in /  0mm 287 W/m2
15:20 61 °F /  16.1 °C 48.3 °F /  9.1 °C 30.30in /  1026hPa North 5mph /  8km/h 12mph /  19.3km/h 63% 0.00in /  0mm 264 W/m2
15:30 60.4 °F /  15.8 °C 47.8 °F /  8.8 °C 30.30in /  1026hPa North 5mph /  8km/h 12mph /  19.3km/h 63% 0.00in /  0mm 240 W/m2
15:40 60.3 °F /  15.7 °C 48 °F /  8.9 °C 30.30in /  1026hPa North 6mph /  9.7km/h 13mph /  20.9km/h 64% 0.00in /  0mm 216 W/m2
15:50 59.9 °F /  15.5 °C 47.7 °F /  8.7 °C 30.30in /  1026hPa North 5mph /  8km/h 10mph /  16.1km/h 64% 0.00in /  0mm 191 W/m2
16:00 59.5 °F /  15.3 °C 47.3 °F /  8.5 °C 30.30in /  1026hPa North 5mph /  8km/h 9mph /  14.5km/h 64% 0.00in /  0mm 160 W/m2
16:10 59.2 °F /  15.1 °C 47.4 °F /  8.6 °C 30.30in /  1026hPa North 5mph /  8km/h 12mph /  19.3km/h 65% 0.00in /  0mm 131 W/m2
16:20 58.8 °F /  14.9 °C 47 °F /  8.3 °C 30.30in /  1026hPa North 5mph /  8km/h 10mph /  16.1km/h 65% 0.00in /  0mm 108 W/m2
16:30 58.3 °F /  14.6 °C 47.4 °F /  8.6 °C 30.30in /  1026hPa North 3mph /  4.8km/h 10mph /  16.1km/h 67% 0.00in /  0mm 90 W/m2
16:40 57.9 °F /  14.4 °C 47 °F /  8.3 °C 30.30in /  1026hPa NNW 3mph /  4.8km/h 9mph /  14.5km/h 67% 0.00in /  0mm 69 W/m2
16:50 57.4 °F /  14.1 °C 46.9 °F /  8.3 °C 30.30in /  1026hPa North 5mph /  8km/h 8mph /  12.9km/h 68% 0.00in /  0mm 49 W/m2
17:00 56.8 °F /  13.8 °C 46.4 °F /  8 °C 30.30in /  1026hPa NNW 2mph /  3.2km/h 9mph /  14.5km/h 68% 0.00in /  0mm 29 W/m2
17:10 56.3 °F /  13.5 °C 46.2 °F /  7.9 °C 30.30in /  1026hPa NNW 2mph /  3.2km/h 7mph /  11.3km/h 69% 0.00in /  0mm 12 W/m2
17:20 55.6 °F /  13.1 °C 45.9 °F /  7.7 °C 30.30in /  1026hPa NNW 2mph /  3.2km/h 7mph /  11.3km/h 70% 0.00in /  0mm 10 W/m2
17:30 54.9 °F /  12.7 °C 46 °F /  7.8 °C 30.30in /  1026hPa NNW 2mph /  3.2km/h 8mph /  12.9km/h 72% 0.00in /  0mm 0 W/m2
17:40 54.1 °F /  12.3 °C 45.7 °F /  7.6 °C 30.30in /  1026hPa NNW 5mph /  8km/h 8mph /  12.9km/h 73% 0.00in /  0mm 0 W/m2
17:50 53.6 °F /  12 °C 45.5 °F /  7.5 °C 30.30in /  1026hPa NNW 2mph /  3.2km/h 7mph /  11.3km/h 74% 0.00in /  0mm 0 W/m2
18:00 52.9 °F /  11.6 °C 45.2 °F /  7.3 °C 30.30in /  1026hPa NW 1mph /  1.6km/h 6mph /  9.7km/h 75% 0.00in /  0mm 0 W/m2
18:10 52.2 °F /  11.2 °C 44.5 °F /  6.9 °C 30.31in /  1026.3hPa WNW 2mph /  3.2km/h 5mph /  8km/h 75% 0.00in /  0mm 0 W/m2
18:20 51.8 °F /  11 °C 44.8 °F /  7.1 °C 30.31in /  1026.3hPa NNW 2mph /  3.2km/h 5mph /  8km/h 77% 0.00in /  0mm 0 W/m2
18:30 51.1 °F /  10.6 °C 44.5 °F /  6.9 °C 30.31in /  1026.3hPa NW 2mph /  3.2km/h 7mph /  11.3km/h 78% 0.00in /  0mm 0 W/m2
18:40 50.5 °F /  10.3 °C 43.9 °F /  6.6 °C 30.31in /  1026.3hPa West 3mph /  4.8km/h 6mph /  9.7km/h 78% 0.00in /  0mm 0 W/m2
18:50 49.8 °F /  9.9 °C 43.2 °F /  6.2 °C 30.31in /  1026.3hPa West 1mph /  1.6km/h 4mph /  6.4km/h 78% 0.00in /  0mm 0 W/m2
19:00 49.2 °F /  9.6 °C 43 °F /  6.1 °C 30.32in /  1026.6hPa Calm   3mph /  4.8km/h 79% 0.00in /  0mm 0 W/m2
19:10 48.6 °F /  9.2 °C 42.3 °F /  5.7 °C 30.32in /  1026.6hPa WSW 1mph /  1.6km/h 3mph /  4.8km/h 79% 0.00in /  0mm 0 W/m2
19:20 47.8 °F /  8.8 °C 42 °F /  5.6 °C 30.32in /  1026.6hPa WSW 1mph /  1.6km/h 3mph /  4.8km/h 80% 0.00in /  0mm 0 W/m2
19:30 47.3 °F /  8.5 °C 41.7 °F /  5.4 °C 30.32in /  1026.6hPa WSW 2mph /  3.2km/h 3mph /  4.8km/h 81% 0.00in /  0mm 0 W/m2
19:40 46.8 °F /  8.2 °C 41.9 °F /  5.5 °C 30.32in /  1026.6hPa SW 1mph /  1.6km/h 3mph /  4.8km/h 83% 0.00in /  0mm 0 W/m2
19:50 46.2 °F /  7.9 °C 41.3 °F /  5.2 °C 30.32in /  1026.6hPa Calm   3mph /  4.8km/h 83% 0.00in /  0mm 0 W/m2
20:00 45.7 °F /  7.6 °C 41.1 °F /  5.1 °C 30.32in /  1026.6hPa SW 1mph /  1.6km/h 2mph /  3.2km/h 84% 0.00in /  0mm 0 W/m2
20:10 45.1 °F /  7.3 °C 40.6 °F /  4.8 °C 30.32in /  1026.6hPa Calm   2mph /  3.2km/h 84% 0.00in /  0mm 0 W/m2
20:20 44.6 °F /  7 °C 40.4 °F /  4.7 °C 30.32in /  1026.6hPa Calm   2mph /  3.2km/h 85% 0.00in /  0mm 0 W/m2
20:30 44.1 °F /  6.7 °C 40.1 °F /  4.5 °C 30.32in /  1026.6hPa NW 1mph /  1.6km/h 3mph /  4.8km/h 86% 0.00in /  0mm 0 W/m2
20:40 43.7 °F /  6.5 °C 39.8 °F /  4.3 °C 30.32in /  1026.6hPa WNW 1mph /  1.6km/h 2mph /  3.2km/h 86% 0.00in /  0mm 0 W/m2
20:50 43.2 °F /  6.2 °C 39.8 °F /  4.3 °C 30.32in /  1026.6hPa Calm   2mph /  3.2km/h 88% 0.00in /  0mm 0 W/m2
21:00 42.9 °F /  6.1 °C 39.3 °F /  4.1 °C 30.32in /  1026.6hPa Calm     87% 0.00in /  0mm 0 W/m2
21:10 42.6 °F /  5.9 °C 39.3 °F /  4.1 °C 30.33in /  1027hPa WSW 1mph /  1.6km/h 2mph /  3.2km/h 88% 0.00in /  0mm 0 W/m2
21:20 42.1 °F /  5.6 °C 39.1 °F /  3.9 °C 30.33in /  1027hPa Calm   2mph /  3.2km/h 89% 0.00in /  0mm 0 W/m2
21:30 41.7 °F /  5.4 °C 38.7 °F /  3.7 °C 30.33in /  1027hPa Calm   2mph /  3.2km/h 89% 0.00in /  0mm 0 W/m2
21:40 41.4 °F /  5.2 °C 38.6 °F /  3.7 °C 30.33in /  1027hPa SSW 1mph /  1.6km/h 3mph /  4.8km/h 90% 0.00in /  0mm 0 W/m2
21:50 41.1 °F /  5.1 °C 38.7 °F /  3.7 °C 30.33in /  1027hPa SSW 2mph /  3.2km/h 4mph /  6.4km/h 91% 0.00in /  0mm 0 W/m2
22:00 40.8 °F /  4.9 °C 38.4 °F /  3.6 °C 30.34in /  1027.3hPa Calm   3mph /  4.8km/h 91% 0.00in /  0mm 0 W/m2
22:10 40.5 °F /  4.7 °C 38 °F /  3.3 °C 30.34in /  1027.3hPa Calm   2mph /  3.2km/h 91% 0.00in /  0mm 0 W/m2
22:20 40.2 °F /  4.6 °C 38.1 °F /  3.4 °C 30.34in /  1027.3hPa Calm   3mph /  4.8km/h 92% 0.00in /  0mm 0 W/m2
22:30 40.1 °F /  4.5 °C 38.2 °F /  3.4 °C 30.34in /  1027.3hPa SE 1mph /  1.6km/h 2mph /  3.2km/h 93% 0.00in /  0mm 0 W/m2
22:40 39.7 °F /  4.3 °C 37.3 °F /  2.9 °C 30.34in /  1027.3hPa Calm   2mph /  3.2km/h 91% 0.00in /  0mm 0 W/m2
22:50 39.5 °F /  4.2 °C 37.6 °F /  3.1 °C 30.34in /  1027.3hPa Calm   2mph /  3.2km/h 93% 0.00in /  0mm 0 W/m2
23:00 39.2 °F /  4 °C 36.8 °F /  2.7 °C 30.34in /  1027.3hPa Calm   1mph /  1.6km/h 91% 0.00in /  0mm 0 W/m2
23:10 39 °F /  3.9 °C 37.2 °F /  2.9 °C 30.34in /  1027.3hPa Calm   2mph /  3.2km/h 93% 0.00in /  0mm 0 W/m2
23:20 38.7 °F /  3.7 °C 37.1 °F /  2.8 °C 30.34in /  1027.3hPa Calm   3mph /  4.8km/h 94% 0.00in /  0mm 0 W/m2
23:30 38.7 °F /  3.7 °C 37.1 °F /  2.8 °C 30.34in /  1027.3hPa Calm   2mph /  3.2km/h 94% 0.00in /  0mm 0 W/m2
23:40 38.4 °F /  3.6 °C 36.8 °F /  2.7 °C 30.34in /  1027.3hPa Calm   2mph /  3.2km/h 94% 0.00in /  0mm 0 W/m2
23:50 38.2 °F /  3.4 °C 36.7 °F /  2.6 °C 30.34in /  1027.3hPa Calm   1mph /  1.6km/h 94% 0.00in /  0mm 0 W/m2
Knjazevac, Serbia
Compliments of Weather Underground - 2 mb